sensor_id;sensor_type;location;lat;lon;timestamp;pressure;altitude;pressure_sealevel;temperature;humidity
48200;BME280;33990;44.602;10.976;2024-03-17T00:01:12;101599.19;;;21.98;49.42
48200;BME280;33990;44.602;10.976;2024-03-17T00:03:38;101596.50;;;21.98;49.63
48200;BME280;33990;44.602;10.976;2024-03-17T00:06:05;101583.88;;;21.98;49.74
48200;BME280;33990;44.602;10.976;2024-03-17T00:08:31;101591.84;;;22.00;49.87
48200;BME280;33990;44.602;10.976;2024-03-17T00:10:57;101583.75;;;22.00;50.16
48200;BME280;33990;44.602;10.976;2024-03-17T00:13:23;101585.47;;;22.01;49.91
48200;BME280;33990;44.602;10.976;2024-03-17T00:15:50;101580.91;;;22.02;49.65
48200;BME280;33990;44.602;10.976;2024-03-17T00:18:17;101579.34;;;21.99;49.39
48200;BME280;33990;44.602;10.976;2024-03-17T00:20:44;101574.69;;;22.01;49.55
48200;BME280;33990;44.602;10.976;2024-03-17T00:23:10;101570.13;;;22.02;49.40
48200;BME280;33990;44.602;10.976;2024-03-17T00:25:38;101567.44;;;22.02;49.26
48200;BME280;33990;44.602;10.976;2024-03-17T00:28:05;101562.19;;;22.00;49.16
48200;BME280;33990;44.602;10.976;2024-03-17T00:30:31;101570.13;;;22.02;49.07
48200;BME280;33990;44.602;10.976;2024-03-17T00:32:59;101563.91;;;22.01;49.05
48200;BME280;33990;44.602;10.976;2024-03-17T00:35:26;101562.19;;;22.00;49.02
48200;BME280;33990;44.602;10.976;2024-03-17T00:37:52;101558.50;;;22.01;49.23
48200;BME280;33990;44.602;10.976;2024-03-17T00:40:20;101554.97;;;22.01;49.29
48200;BME280;33990;44.602;10.976;2024-03-17T00:42:46;101562.19;;;22.00;49.01
48200;BME280;33990;44.602;10.976;2024-03-17T00:45:13;101552.25;;;22.01;49.32
48200;BME280;33990;44.602;10.976;2024-03-17T00:47:39;101554.09;;;22.00;49.53
48200;BME280;33990;44.602;10.976;2024-03-17T00:50:06;101552.25;;;22.01;49.22
48200;BME280;33990;44.602;10.976;2024-03-17T00:52:34;101554.09;;;22.00;49.18
48200;BME280;33990;44.602;10.976;2024-03-17T00:55:01;101550.66;;;21.98;49.28
48200;BME280;33990;44.602;10.976;2024-03-17T00:57:28;101546.13;;;21.98;49.15
48200;BME280;33990;44.602;10.976;2024-03-17T00:59:54;101546.28;;;21.97;49.19
48200;BME280;33990;44.602;10.976;2024-03-17T01:02:21;101546.28;;;21.97;49.11
48200;BME280;33990;44.602;10.976;2024-03-17T01:04:48;101542.72;;;21.96;49.23
48200;BME280;33990;44.602;10.976;2024-03-17T01:07:14;101552.50;;;21.97;49.23
48200;BME280;33990;44.602;10.976;2024-03-17T01:09:40;101546.28;;;21.97;49.32
48200;BME280;33990;44.602;10.976;2024-03-17T01:12:07;101557.31;;;21.94;49.19
48200;BME280;33990;44.602;10.976;2024-03-17T01:14:33;101554.63;;;21.94;49.26
48200;BME280;33990;44.602;10.976;2024-03-17T01:17:00;101557.16;;;21.95;49.30
48200;BME280;33990;44.602;10.976;2024-03-17T01:19:26;101562.69;;;21.94;49.29
48200;BME280;33990;44.602;10.976;2024-03-17T01:21:53;101577.03;;;21.94;49.28
48200;BME280;33990;44.602;10.976;2024-03-17T01:24:19;101586.97;;;21.94;49.38
48200;BME280;33990;44.602;10.976;2024-03-17T01:26:46;101590.50;;;21.94;49.51
48200;BME280;33990;44.602;10.976;2024-03-17T01:29:12;101598.59;;;21.94;49.44
48200;BME280;33990;44.602;10.976;2024-03-17T01:31:39;101601.28;;;21.94;49.59
48200;BME280;33990;44.602;10.976;2024-03-17T01:34:05;101600.44;;;21.94;49.39
48200;BME280;33990;44.602;10.976;2024-03-17T01:36:32;101605.84;;;21.94;49.22
48200;BME280;33990;44.602;10.976;2024-03-17T01:38:59;101611.22;;;21.94;49.09
48200;BME280;33990;44.602;10.976;2024-03-17T01:41:26;101609.53;;;21.93;49.05
48200;BME280;33990;44.602;10.976;2024-03-17T01:43:52;101615.78;;;21.93;49.17
48200;BME280;33990;44.602;10.976;2024-03-17T01:46:18;101614.91;;;21.93;49.03
48200;BME280;33990;44.602;10.976;2024-03-17T01:48:45;101613.22;;;21.92;49.08
48200;BME280;33990;44.602;10.976;2024-03-17T01:51:13;101596.06;;;21.93;49.12
48200;BME280;33990;44.602;10.976;2024-03-17T01:53:41;101596.16;;;21.91;48.99
48200;BME280;33990;44.602;10.976;2024-03-17T01:56:10;101587.22;;;21.91;49.06
48200;BME280;33990;44.602;10.976;2024-03-17T01:58:37;101591.66;;;21.92;48.96
48200;BME280;33990;44.602;10.976;2024-03-17T02:01:04;101585.53;;;21.90;48.93
48200;BME280;33990;44.602;10.976;2024-03-17T02:03:30;101590.06;;;21.89;49.14
48200;BME280;33990;44.602;10.976;2024-03-17T02:05:58;101584.66;;;21.89;49.03
48200;BME280;33990;44.602;10.976;2024-03-17T02:08:25;101570.34;;;21.89;49.02
48200;BME280;33990;44.602;10.976;2024-03-17T02:10:55;101574.03;;;21.88;48.95
48200;BME280;33990;44.602;10.976;2024-03-17T02:13:22;101571.34;;;21.88;49.00
48200;BME280;33990;44.602;10.976;2024-03-17T02:15:48;101571.34;;;21.88;48.90
48200;BME280;33990;44.602;10.976;2024-03-17T02:18:15;101567.91;;;21.86;49.11
48200;BME280;33990;44.602;10.976;2024-03-17T02:20:41;101565.19;;;21.86;48.73
48200;BME280;33990;44.602;10.976;2024-03-17T02:23:28;101554.41;;;21.86;48.89
48200;BME280;33990;44.602;10.976;2024-03-17T02:25:54;101552.56;;;21.86;48.85
48200;BME280;33990;44.602;10.976;2024-03-17T02:28:21;101560.66;;;21.86;48.77
48200;BME280;33990;44.602;10.976;2024-03-17T02:30:47;101552.72;;;21.85;48.77
48200;BME280;33990;44.602;10.976;2024-03-17T02:33:13;101552.72;;;21.85;48.69
48200;BME280;33990;44.602;10.976;2024-03-17T02:35:39;101553.56;;;21.85;48.67
48200;BME280;33990;44.602;10.976;2024-03-17T02:38:06;101552.72;;;21.85;48.69
48200;BME280;33990;44.602;10.976;2024-03-17T02:40:34;101554.56;;;21.84;48.66
48200;BME280;33990;44.602;10.976;2024-03-17T02:43:00;101553.72;;;21.84;48.75
48200;BME280;33990;44.602;10.976;2024-03-17T02:45:26;101552.81;;;21.83;48.72
48200;BME280;33990;44.602;10.976;2024-03-17T02:47:52;101551.00;;;21.84;48.63
48200;BME280;33990;44.602;10.976;2024-03-17T02:50:19;101562.66;;;21.84;48.73
48200;BME280;33990;44.602;10.976;2024-03-17T02:52:45;101568.16;;;21.83;48.53
48200;BME280;33990;44.602;10.976;2024-03-17T02:55:11;101577.09;;;21.83;48.87
48200;BME280;33990;44.602;10.976;2024-03-17T02:57:37;101572.56;;;21.84;48.64
48200;BME280;33990;44.602;10.976;2024-03-17T03:00:05;101572.56;;;21.84;48.48
48200;BME280;33990;44.602;10.976;2024-03-17T03:02:34;101567.28;;;21.82;48.49
48200;BME280;33990;44.602;10.976;2024-03-17T03:05:01;101562.75;;;21.83;48.88
48200;BME280;33990;44.602;10.976;2024-03-17T03:07:27;101560.06;;;21.83;48.43
48200;BME280;33990;44.602;10.976;2024-03-17T03:09:53;101557.50;;;21.81;48.83
48200;BME280;33990;44.602;10.976;2024-03-17T03:12:20;101558.34;;;21.82;48.59
48200;BME280;33990;44.602;10.976;2024-03-17T03:14:46;101548.44;;;21.82;48.52
48200;BME280;33990;44.602;10.976;2024-03-17T03:17:13;101546.72;;;21.81;48.42
48200;BME280;33990;44.602;10.976;2024-03-17T03:19:39;101544.88;;;21.82;48.50
48200;BME280;33990;44.602;10.976;2024-03-17T03:22:05;101547.56;;;21.82;48.26
48200;BME280;33990;44.602;10.976;2024-03-17T03:24:32;101552.97;;;21.82;48.39
48200;BME280;33990;44.602;10.976;2024-03-17T03:26:58;101552.97;;;21.82;48.40
48200;BME280;33990;44.602;10.976;2024-03-17T03:29:25;101550.28;;;21.82;48.40
48200;BME280;33990;44.602;10.976;2024-03-17T03:31:51;101557.50;;;21.81;48.29
48200;BME280;33990;44.602;10.976;2024-03-17T03:34:17;101551.25;;;21.81;48.46
48200;BME280;33990;44.602;10.976;2024-03-17T03:36:43;101550.41;;;21.80;48.36
48200;BME280;33990;44.602;10.976;2024-03-17T03:39:10;101549.56;;;21.80;48.28
48200;BME280;33990;44.602;10.976;2024-03-17T03:41:38;101544.19;;;21.80;48.24
48200;BME280;33990;44.602;10.976;2024-03-17T03:44:04;101550.41;;;21.80;48.44
48200;BME280;33990;44.602;10.976;2024-03-17T03:46:30;101552.25;;;21.80;48.27
48200;BME280;33990;44.602;10.976;2024-03-17T03:48:57;101545.13;;;21.79;48.32
48200;BME280;33990;44.602;10.976;2024-03-17T03:51:23;101550.53;;;21.79;48.30
48200;BME280;33990;44.602;10.976;2024-03-17T03:53:50;101546.97;;;21.78;48.04
48200;BME280;33990;44.602;10.976;2024-03-17T03:56:17;101557.75;;;21.78;48.15
48200;BME280;33990;44.602;10.976;2024-03-17T03:58:43;101556.91;;;21.78;48.24
48200;BME280;33990;44.602;10.976;2024-03-17T04:01:12;101553.38;;;21.77;48.19
48200;BME280;33990;44.602;10.976;2024-03-17T04:03:38;101552.50;;;21.77;48.29
48200;BME280;33990;44.602;10.976;2024-03-17T04:06:07;101556.91;;;21.78;48.18
48200;BME280;33990;44.602;10.976;2024-03-17T04:08:34;101567.69;;;21.78;48.13
48200;BME280;33990;44.602;10.976;2024-03-17T04:11:01;101566.84;;;21.77;48.03
48200;BME280;33990;44.602;10.976;2024-03-17T04:13:28;101567.69;;;21.78;48.14
48200;BME280;33990;44.602;10.976;2024-03-17T04:15:59;101566.00;;;21.77;48.14
48200;BME280;33990;44.602;10.976;2024-03-17T04:18:26;101566.84;;;21.77;48.15
48200;BME280;33990;44.602;10.976;2024-03-17T04:20:57;101579.47;;;21.77;48.14
48200;BME280;33990;44.602;10.976;2024-03-17T04:23:23;101569.53;;;21.77;48.17
48200;BME280;33990;44.602;10.976;2024-03-17T04:25:50;101582.16;;;21.77;48.13
48200;BME280;33990;44.602;10.976;2024-03-17T04:28:17;101569.69;;;21.76;48.18
48200;BME280;33990;44.602;10.976;2024-03-17T04:30:43;101572.38;;;21.76;48.13
48200;BME280;33990;44.602;10.976;2024-03-17T04:33:11;101574.19;;;21.75;47.83
48200;BME280;33990;44.602;10.976;2024-03-17T04:35:38;101575.91;;;21.76;48.15
48200;BME280;33990;44.602;10.976;2024-03-17T04:38:05;101576.78;;;21.77;48.13
48200;BME280;33990;44.602;10.976;2024-03-17T04:40:44;101587.41;;;21.78;48.12
48200;BME280;33990;44.602;10.976;2024-03-17T04:43:10;101578.47;;;21.78;47.83
48200;BME280;33990;44.602;10.976;2024-03-17T04:45:36;101580.16;;;21.79;48.07
48200;BME280;33990;44.602;10.976;2024-03-17T04:48:03;101583.88;;;21.78;48.24
48200;BME280;33990;44.602;10.976;2024-03-17T04:50:30;101588.25;;;21.79;48.17
48200;BME280;33990;44.602;10.976;2024-03-17T04:53:01;101581.91;;;21.80;48.29
48200;BME280;33990;44.602;10.976;2024-03-17T04:55:27;101595.38;;;21.80;48.38
48200;BME280;33990;44.602;10.976;2024-03-17T04:57:54;101601.75;;;21.79;48.32
48200;BME280;33990;44.602;10.976;2024-03-17T05:00:21;101606.28;;;21.78;48.33
48200;BME280;33990;44.602;10.976;2024-03-17T05:02:47;101613.50;;;21.78;48.38
48200;BME280;33990;44.602;10.976;2024-03-17T05:05:14;101614.34;;;21.78;48.28
48200;BME280;33990;44.602;10.976;2024-03-17T05:07:40;101623.44;;;21.77;48.36
48200;BME280;33990;44.602;10.976;2024-03-17T05:10:07;101632.38;;;21.78;48.28
48200;BME280;33990;44.602;10.976;2024-03-17T05:12:33;101629.81;;;21.76;48.38
48200;BME280;33990;44.602;10.976;2024-03-17T05:14:59;101630.69;;;21.77;48.07
48200;BME280;33990;44.602;10.976;2024-03-17T05:17:26;101631.66;;;21.76;48.39
48200;BME280;33990;44.602;10.976;2024-03-17T05:19:52;101643.41;;;21.75;48.41
48200;BME280;33990;44.602;10.976;2024-03-17T05:22:18;101641.56;;;21.75;48.28
48200;BME280;33990;44.602;10.976;2024-03-17T05:24:45;101643.41;;;21.75;48.19
48200;BME280;33990;44.602;10.976;2024-03-17T05:27:11;101646.09;;;21.75;48.27
48200;BME280;33990;44.602;10.976;2024-03-17T05:29:37;101654.31;;;21.73;48.39
48200;BME280;33990;44.602;10.976;2024-03-17T05:32:04;101654.31;;;21.73;48.27
48200;BME280;33990;44.602;10.976;2024-03-17T05:34:31;101659.72;;;21.73;48.08
48200;BME280;33990;44.602;10.976;2024-03-17T05:36:58;101662.41;;;21.73;48.20
48200;BME280;33990;44.602;10.976;2024-03-17T05:39:24;101660.72;;;21.72;48.54
48200;BME280;33990;44.602;10.976;2024-03-17T05:41:51;101666.94;;;21.72;48.18
48200;BME280;33990;44.602;10.976;2024-03-17T05:44:17;101671.50;;;21.72;48.30
48200;BME280;33990;44.602;10.976;2024-03-17T05:46:44;101671.50;;;21.72;48.17
48200;BME280;33990;44.602;10.976;2024-03-17T05:49:10;101681.41;;;21.71;48.31
48200;BME280;33990;44.602;10.976;2024-03-17T05:51:36;101677.72;;;21.72;48.16
48200;BME280;33990;44.602;10.976;2024-03-17T05:54:03;101675.16;;;21.71;47.96
48200;BME280;33990;44.602;10.976;2024-03-17T05:56:29;101672.44;;;21.71;48.00
48200;BME280;33990;44.602;10.976;2024-03-17T05:58:55;101679.69;;;21.70;48.02
48200;BME280;33990;44.602;10.976;2024-03-17T06:01:22;101676.13;;;21.70;48.01
48200;BME280;33990;44.602;10.976;2024-03-17T06:03:48;101676.97;;;21.70;47.98
48200;BME280;33990;44.602;10.976;2024-03-17T06:06:15;101677.97;;;21.69;48.07
48200;BME280;33990;44.602;10.976;2024-03-17T06:08:41;101684.13;;;21.71;48.10
48200;BME280;33990;44.602;10.976;2024-03-17T06:11:08;101683.22;;;21.71;48.02
48200;BME280;33990;44.602;10.976;2024-03-17T06:13:34;101695.75;;;21.72;48.14
48200;BME280;33990;44.602;10.976;2024-03-17T06:16:04;101691.44;;;21.69;47.94
48200;BME280;33990;44.602;10.976;2024-03-17T06:18:31;101693.16;;;21.70;48.06
48200;BME280;33990;44.602;10.976;2024-03-17T06:20:58;101684.13;;;21.71;48.01
48200;BME280;33990;44.602;10.976;2024-03-17T06:23:25;101694.91;;;21.71;47.99
48200;BME280;33990;44.602;10.976;2024-03-17T06:25:54;101699.41;;;21.71;47.86
48200;BME280;33990;44.602;10.976;2024-03-17T06:28:22;101699.28;;;21.72;47.92
48200;BME280;33990;44.602;10.976;2024-03-17T06:30:56;101697.44;;;21.73;47.76
48200;BME280;33990;44.602;10.976;2024-03-17T06:33:26;101700.13;;;21.73;47.86
48200;BME280;33990;44.602;10.976;2024-03-17T06:35:54;101696.47;;;21.74;47.95
48200;BME280;33990;44.602;10.976;2024-03-17T06:38:21;101687.38;;;21.75;47.89
48200;BME280;33990;44.602;10.976;2024-03-17T06:40:48;101680.03;;;21.77;47.96
48200;BME280;33990;44.602;10.976;2024-03-17T06:43:16;101680.75;;;21.79;47.83
48200;BME280;33990;44.602;10.976;2024-03-17T06:45:43;101681.63;;;21.80;47.83
48200;BME280;33990;44.602;10.976;2024-03-17T06:48:09;101686.88;;;21.81;47.80
48200;BME280;33990;44.602;10.976;2024-03-17T06:50:38;101685.03;;;21.82;47.69
48200;BME280;33990;44.602;10.976;2024-03-17T06:53:07;101685.91;;;21.82;47.70
48200;BME280;33990;44.602;10.976;2024-03-17T06:55:34;101693.00;;;21.83;47.57
48200;BME280;33990;44.602;10.976;2024-03-17T06:58:01;101692.03;;;21.84;47.70
48200;BME280;33990;44.602;10.976;2024-03-17T07:00:27;101692.75;;;21.86;47.55
48200;BME280;33990;44.602;10.976;2024-03-17T07:02:53;101694.44;;;21.87;47.50
48200;BME280;33990;44.602;10.976;2024-03-17T07:05:20;101692.63;;;21.88;47.52
48200;BME280;33990;44.602;10.976;2024-03-17T07:07:46;101687.09;;;21.89;47.46
48200;BME280;33990;44.602;10.976;2024-03-17T07:10:12;101689.81;;;21.89;47.59
48200;BME280;33990;44.602;10.976;2024-03-17T07:12:39;101690.66;;;21.90;47.42
48200;BME280;33990;44.602;10.976;2024-03-17T07:15:06;101684.41;;;21.89;47.26
48200;BME280;33990;44.602;10.976;2024-03-17T07:17:33;101687.81;;;21.91;47.54
48200;BME280;33990;44.602;10.976;2024-03-17T07:20:00;101686.00;;;21.92;47.38
48200;BME280;33990;44.602;10.976;2024-03-17T07:22:26;101685.00;;;21.93;47.58
48200;BME280;33990;44.602;10.976;2024-03-17T07:24:55;101685.00;;;21.93;47.36
48200;BME280;33990;44.602;10.976;2024-03-17T07:27:27;101686.72;;;21.94;47.33
48200;BME280;33990;44.602;10.976;2024-03-17T07:29:53;101684.03;;;21.94;47.20
48200;BME280;33990;44.602;10.976;2024-03-17T07:32:19;101688.41;;;21.95;47.34
48200;BME280;33990;44.602;10.976;2024-03-17T07:34:46;101690.16;;;21.96;47.37
48200;BME280;33990;44.602;10.976;2024-03-17T07:37:12;101684.75;;;21.96;47.38
48200;BME280;33990;44.602;10.976;2024-03-17T07:39:38;101686.47;;;21.97;47.22
48200;BME280;33990;44.602;10.976;2024-03-17T07:42:04;101690.88;;;21.98;47.32
48200;BME280;33990;44.602;10.976;2024-03-17T07:44:31;101696.25;;;21.98;47.36
48200;BME280;33990;44.602;10.976;2024-03-17T07:47:01;101699.69;;;22.00;47.36
48200;BME280;33990;44.602;10.976;2024-03-17T07:49:27;101696.00;;;22.01;47.26
48200;BME280;33990;44.602;10.976;2024-03-17T07:51:54;101699.56;;;22.02;47.42
48200;BME280;33990;44.602;10.976;2024-03-17T07:54:20;101695.88;;;22.03;47.42
48200;BME280;33990;44.602;10.976;2024-03-17T07:56:47;101707.50;;;22.03;47.84
48200;BME280;33990;44.602;10.976;2024-03-17T07:59:13;101700.41;;;22.02;47.40
48200;BME280;33990;44.602;10.976;2024-03-17T08:01:43;101702.13;;;22.03;47.57
48200;BME280;33990;44.602;10.976;2024-03-17T08:04:09;101703.84;;;22.04;47.47
48200;BME280;33990;44.602;10.976;2024-03-17T08:06:41;101702.97;;;22.04;47.63
48200;BME280;33990;44.602;10.976;2024-03-17T08:09:10;101703.84;;;22.04;47.70
48200;BME280;33990;44.602;10.976;2024-03-17T08:11:38;101694.88;;;22.04;47.77
48200;BME280;33990;44.602;10.976;2024-03-17T08:14:05;101700.16;;;22.05;47.77
48200;BME280;33990;44.602;10.976;2024-03-17T08:16:31;101694.78;;;22.05;48.06
48200;BME280;33990;44.602;10.976;2024-03-17T08:18:58;101691.94;;;22.07;47.80
48200;BME280;33990;44.602;10.976;2024-03-17T08:21:24;101693.78;;;22.06;47.81
48200;BME280;33990;44.602;10.976;2024-03-17T08:23:50;101693.78;;;22.06;47.83
48200;BME280;33990;44.602;10.976;2024-03-17T08:26:17;101693.63;;;22.08;47.74
48200;BME280;33990;44.602;10.976;2024-03-17T08:28:44;101691.81;;;22.08;47.71
48200;BME280;33990;44.602;10.976;2024-03-17T08:31:12;101694.53;;;22.08;47.98
48200;BME280;33990;44.602;10.976;2024-03-17T08:33:39;101695.38;;;22.09;47.84
48200;BME280;33990;44.602;10.976;2024-03-17T08:36:06;101692.69;;;22.09;48.03
48200;BME280;33990;44.602;10.976;2024-03-17T08:38:37;101688.13;;;22.09;48.08
48200;BME280;33990;44.602;10.976;2024-03-17T08:41:05;101690.81;;;22.09;48.08
48200;BME280;33990;44.602;10.976;2024-03-17T08:43:32;101682.75;;;22.09;48.04
48200;BME280;33990;44.602;10.976;2024-03-17T08:46:01;101681.03;;;22.08;47.92
48200;BME280;33990;44.602;10.976;2024-03-17T08:48:30;101678.34;;;22.08;48.00
48200;BME280;33990;44.602;10.976;2024-03-17T08:50:57;101673.78;;;22.09;48.02
48200;BME280;33990;44.602;10.976;2024-03-17T08:53:25;101674.66;;;22.09;48.18
48200;BME280;33990;44.602;10.976;2024-03-17T08:55:52;101674.66;;;22.09;48.21
48200;BME280;33990;44.602;10.976;2024-03-17T08:58:18;101680.03;;;22.09;48.05
48200;BME280;33990;44.602;10.976;2024-03-17T09:00:45;101684.44;;;22.10;48.15
48200;BME280;33990;44.602;10.976;2024-03-17T09:03:11;101685.28;;;22.11;48.26
48200;BME280;33990;44.602;10.976;2024-03-17T09:05:39;101678.06;;;22.11;48.35
48200;BME280;33990;44.602;10.976;2024-03-17T09:08:06;101676.22;;;22.12;48.55
48200;BME280;33990;44.602;10.976;2024-03-17T09:10:40;101675.28;;;22.13;48.49
48200;BME280;33990;44.602;10.976;2024-03-17T09:13:07;101681.53;;;22.13;48.44
48200;BME280;33990;44.602;10.976;2024-03-17T09:15:33;101672.44;;;22.14;48.74
48200;BME280;33990;44.602;10.976;2024-03-17T09:17:59;101676.13;;;22.13;48.22
48200;BME280;33990;44.602;10.976;2024-03-17T09:20:26;101672.44;;;22.14;48.55
48200;BME280;33990;44.602;10.976;2024-03-17T09:22:52;101673.28;;;22.15;48.33
48200;BME280;33990;44.602;10.976;2024-03-17T09:25:18;101673.50;;;22.12;47.34
48200;BME280;33990;44.602;10.976;2024-03-17T09:27:45;101669.88;;;22.13;47.59
48200;BME280;33990;44.602;10.976;2024-03-17T09:30:11;101670.81;;;22.12;47.84
48200;BME280;33990;44.602;10.976;2024-03-17T09:32:38;101674.41;;;22.12;47.94
48200;BME280;33990;44.602;10.976;2024-03-17T09:35:05;101672.59;;;22.13;48.07
48200;BME280;33990;44.602;10.976;2024-03-17T09:37:31;101666.19;;;22.14;48.04
48200;BME280;33990;44.602;10.976;2024-03-17T09:39:58;101670.75;;;22.13;48.64
48200;BME280;33990;44.602;10.976;2024-03-17T09:42:26;101670.81;;;22.12;48.91
48200;BME280;33990;44.602;10.976;2024-03-17T09:44:56;101661.03;;;22.11;49.11
48200;BME280;33990;44.602;10.976;2024-03-17T09:47:23;101661.03;;;22.11;49.00
48200;BME280;33990;44.602;10.976;2024-03-17T09:49:50;101664.56;;;22.11;48.73
48200;BME280;33990;44.602;10.976;2024-03-17T09:52:26;101672.66;;;22.11;48.57
48200;BME280;33990;44.602;10.976;2024-03-17T09:54:59;101671.69;;;22.12;48.69
48200;BME280;33990;44.602;10.976;2024-03-17T09:57:26;101672.66;;;22.11;48.61
48200;BME280;33990;44.602;10.976;2024-03-17T09:59:53;101671.69;;;22.12;48.76
48200;BME280;33990;44.602;10.976;2024-03-17T10:02:22;101664.50;;;22.13;48.65
48200;BME280;33990;44.602;10.976;2024-03-17T10:04:49;101676.44;;;22.20;48.05
48200;BME280;33990;44.602;10.976;2024-03-17T10:07:15;101665.94;;;22.17;47.74
48200;BME280;33990;44.602;10.976;2024-03-17T10:09:42;101665.09;;;22.16;47.92
48200;BME280;33990;44.602;10.976;2024-03-17T10:12:29;101669.59;;;22.16;48.25
48200;BME280;33990;44.602;10.976;2024-03-17T10:15:00;101665.34;;;22.13;48.41
48200;BME280;33990;44.602;10.976;2024-03-17T10:17:33;101661.41;;;22.17;47.66
48200;BME280;33990;44.602;10.976;2024-03-17T10:20:21;101670.59;;;22.15;47.52
48200;BME280;33990;44.602;10.976;2024-03-17T10:22:59;101664.50;;;22.13;47.90
48200;BME280;33990;44.602;10.976;2024-03-17T10:25:27;101668.13;;;22.12;47.93
48200;BME280;33990;44.602;10.976;2024-03-17T10:27:54;101662.72;;;22.12;47.91
48200;BME280;33990;44.602;10.976;2024-03-17T10:30:24;101662.66;;;22.13;47.69
48200;BME280;33990;44.602;10.976;2024-03-17T10:32:53;101662.72;;;22.12;48.17
48200;BME280;33990;44.602;10.976;2024-03-17T10:37:58;101665.34;;;22.13;48.39
48200;BME280;33990;44.602;10.976;2024-03-17T10:40:26;101664.50;;;22.13;48.35
48200;BME280;33990;44.602;10.976;2024-03-17T10:42:53;101661.78;;;22.13;48.48
48200;BME280;33990;44.602;10.976;2024-03-17T10:45:19;101652.09;;;22.10;48.45
48200;BME280;33990;44.602;10.976;2024-03-17T10:47:49;101654.78;;;22.10;48.34
48200;BME280;33990;44.602;10.976;2024-03-17T10:50:18;101640.69;;;22.07;48.35
48200;BME280;33990;44.602;10.976;2024-03-17T10:52:46;101639.84;;;22.06;48.36
48200;BME280;33990;44.602;10.976;2024-03-17T10:55:23;101645.25;;;22.06;48.27
48200;BME280;33990;44.602;10.976;2024-03-17T10:57:54;101637.16;;;22.06;48.41
48200;BME280;33990;44.602;10.976;2024-03-17T11:00:24;101635.31;;;22.07;48.29
48200;BME280;33990;44.602;10.976;2024-03-17T11:02:52;101623.41;;;22.09;47.87
48200;BME280;33990;44.602;10.976;2024-03-17T11:05:26;101623.41;;;22.09;49.24
48200;BME280;33990;44.602;10.976;2024-03-17T11:07:57;101627.81;;;22.10;51.95
48200;BME280;33990;44.602;10.976;2024-03-17T11:10:34;101623.16;;;22.12;51.50
48200;BME280;33990;44.602;10.976;2024-03-17T11:13:01;101615.19;;;22.11;52.46
48200;BME280;33990;44.602;10.976;2024-03-17T11:20:41;101616.66;;;22.15;49.04
48200;BME280;33990;44.602;10.976;2024-03-17T11:23:08;101610.56;;;22.13;49.05
48200;BME280;33990;44.602;10.976;2024-03-17T11:28:05;101606.03;;;22.13;48.99
48200;BME280;33990;44.602;10.976;2024-03-17T11:38:52;101591.75;;;22.11;48.77
48200;BME280;33990;44.602;10.976;2024-03-17T11:49:36;101565.41;;;22.15;47.67
48200;BME280;33990;44.602;10.976;2024-03-17T11:52:07;101566.78;;;22.09;47.97
48200;BME280;33990;44.602;10.976;2024-03-17T11:54:35;101557.56;;;22.12;48.02
48200;BME280;33990;44.602;10.976;2024-03-17T11:57:13;101552.16;;;22.12;48.20
48200;BME280;33990;44.602;10.976;2024-03-17T11:59:40;101559.19;;;22.14;47.16
48200;BME280;33990;44.602;10.976;2024-03-17T12:02:35;101549.75;;;22.09;47.54
48200;BME280;33990;44.602;10.976;2024-03-17T12:05:02;101540.66;;;22.10;47.18
48200;BME280;33990;44.602;10.976;2024-03-17T12:07:28;101532.72;;;22.08;47.53
48200;BME280;33990;44.602;10.976;2024-03-17T12:09:56;101528.19;;;22.09;47.63
48200;BME280;33990;44.602;10.976;2024-03-17T12:12:24;101519.25;;;22.08;47.99
48200;BME280;33990;44.602;10.976;2024-03-17T12:14:52;101521.94;;;22.08;48.12
48200;BME280;33990;44.602;10.976;2024-03-17T12:17:22;101525.59;;;22.07;48.28
48200;BME280;33990;44.602;10.976;2024-03-17T12:19:49;101533.44;;;22.10;47.84
48200;BME280;33990;44.602;10.976;2024-03-17T12:22:21;101533.06;;;22.15;47.10
48200;BME280;33990;44.602;10.976;2024-03-17T12:24:52;101528.28;;;22.07;47.13
48200;BME280;33990;44.602;10.976;2024-03-17T12:27:26;101519.63;;;22.04;47.08
48200;BME280;33990;44.602;10.976;2024-03-17T12:29:54;101516.91;;;22.04;47.20
48200;BME280;33990;44.602;10.976;2024-03-17T12:32:25;101508.81;;;22.04;47.25
48200;BME280;33990;44.602;10.976;2024-03-17T12:34:53;101510.56;;;22.05;47.36
48200;BME280;33990;44.602;10.976;2024-03-17T12:39:48;101502.47;;;22.05;47.79
48200;BME280;33990;44.602;10.976;2024-03-17T12:42:16;101506.03;;;22.05;48.07
48200;BME280;33990;44.602;10.976;2024-03-17T12:47:20;101502.19;;;22.08;48.40
48200;BME280;33990;44.602;10.976;2024-03-17T12:49:54;101499.63;;;22.06;49.21
48200;BME280;33990;44.602;10.976;2024-03-17T12:55:04;101492.38;;;22.07;52.57
48200;BME280;33990;44.602;10.976;2024-03-17T12:58:06;101501.47;;;22.06;51.73
48200;BME280;33990;44.602;10.976;2024-03-17T13:01:04;101492.09;;;22.00;54.85
48200;BME280;33990;44.602;10.976;2024-03-17T13:03:33;101485.97;;;21.98;56.66
48200;BME280;33990;44.602;10.976;2024-03-17T13:06:01;101484.53;;;21.94;56.43
48200;BME280;33990;44.602;10.976;2024-03-17T13:08:29;101489.22;;;21.92;57.31
48200;BME280;33990;44.602;10.976;2024-03-17T13:10:55;101478.69;;;21.89;57.07
48200;BME280;33990;44.602;10.976;2024-03-17T13:13:21;101470.72;;;21.87;57.46
48200;BME280;33990;44.602;10.976;2024-03-17T13:15:48;101471.72;;;21.86;56.92
48200;BME280;33990;44.602;10.976;2024-03-17T13:18:18;101469.16;;;21.85;56.25